sensor_id;sensor_type;location;lat;lon;timestamp;temperature;humidity
31525;DHT22;18134;52.298;8.888;2023-02-22T00:00:28;7.60;99.90
31525;DHT22;18134;52.298;8.888;2023-02-22T00:03:10;7.50;99.90
31525;DHT22;18134;52.298;8.888;2023-02-22T00:05:39;7.40;99.90
31525;DHT22;18134;52.298;8.888;2023-02-22T00:08:05;7.30;99.90
31525;DHT22;18134;52.298;8.888;2023-02-22T00:10:33;7.20;99.90
31525;DHT22;18134;52.298;8.888;2023-02-22T00:12:59;7.10;99.90
31525;DHT22;18134;52.298;8.888;2023-02-22T00:15:25;6.90;99.90
31525;DHT22;18134;52.298;8.888;2023-02-22T00:17:53;6.80;99.90
31525;DHT22;18134;52.298;8.888;2023-02-22T00:20:19;6.70;99.90
31525;DHT22;18134;52.298;8.888;2023-02-22T00:22:46;6.60;99.90
31525;DHT22;18134;52.298;8.888;2023-02-22T00:25:13;6.50;99.90
31525;DHT22;18134;52.298;8.888;2023-02-22T00:27:42;6.50;99.90
31525;DHT22;18134;52.298;8.888;2023-02-22T00:30:13;6.50;99.90
31525;DHT22;18134;52.298;8.888;2023-02-22T00:32:44;6.50;99.90
31525;DHT22;18134;52.298;8.888;2023-02-22T00:35:15;6.60;99.90
31525;DHT22;18134;52.298;8.888;2023-02-22T00:37:48;6.70;99.90
31525;DHT22;18134;52.298;8.888;2023-02-22T00:40:15;6.70;99.90
31525;DHT22;18134;52.298;8.888;2023-02-22T00:42:43;6.80;99.90
31525;DHT22;18134;52.298;8.888;2023-02-22T00:45:11;6.90;99.90
31525;DHT22;18134;52.298;8.888;2023-02-22T00:47:37;7.10;99.90
31525;DHT22;18134;52.298;8.888;2023-02-22T00:50:03;7.20;99.90
31525;DHT22;18134;52.298;8.888;2023-02-22T00:55:32;7.30;99.90
31525;DHT22;18134;52.298;8.888;2023-02-22T00:57:59;7.40;99.90
31525;DHT22;18134;52.298;8.888;2023-02-22T01:00:30;7.40;99.90
31525;DHT22;18134;52.298;8.888;2023-02-22T01:02:56;7.40;99.90
31525;DHT22;18134;52.298;8.888;2023-02-22T01:05:23;7.50;99.90
31525;DHT22;18134;52.298;8.888;2023-02-22T01:07:52;7.50;99.90
31525;DHT22;18134;52.298;8.888;2023-02-22T01:10:18;7.60;99.90
31525;DHT22;18134;52.298;8.888;2023-02-22T01:12:45;7.60;99.90
31525;DHT22;18134;52.298;8.888;2023-02-22T01:15:17;7.60;99.90
31525;DHT22;18134;52.298;8.888;2023-02-22T01:17:46;7.60;99.90
31525;DHT22;18134;52.298;8.888;2023-02-22T01:20:12;7.60;99.90
31525;DHT22;18134;52.298;8.888;2023-02-22T01:22:43;7.70;99.90
31525;DHT22;18134;52.298;8.888;2023-02-22T01:25:15;7.70;99.90
31525;DHT22;18134;52.298;8.888;2023-02-22T01:27:41;7.70;99.90
31525;DHT22;18134;52.298;8.888;2023-02-22T01:30:12;7.70;99.90
31525;DHT22;18134;52.298;8.888;2023-02-22T01:32:40;7.70;99.90
31525;DHT22;18134;52.298;8.888;2023-02-22T01:35:12;7.80;99.90
31525;DHT22;18134;52.298;8.888;2023-02-22T01:37:38;7.80;99.90
31525;DHT22;18134;52.298;8.888;2023-02-22T01:40:08;7.80;99.90
31525;DHT22;18134;52.298;8.888;2023-02-22T01:42:37;7.80;99.90
31525;DHT22;18134;52.298;8.888;2023-02-22T01:47:46;7.80;99.90
31525;DHT22;18134;52.298;8.888;2023-02-22T01:50:16;7.80;99.90
31525;DHT22;18134;52.298;8.888;2023-02-22T01:52:41;7.90;99.90
31525;DHT22;18134;52.298;8.888;2023-02-22T01:55:12;7.90;99.90
31525;DHT22;18134;52.298;8.888;2023-02-22T01:57:37;7.90;99.90
31525;DHT22;18134;52.298;8.888;2023-02-22T02:00:09;7.90;99.90
31525;DHT22;18134;52.298;8.888;2023-02-22T02:02:40;7.90;99.90
31525;DHT22;18134;52.298;8.888;2023-02-22T02:05:07;7.90;99.90
31525;DHT22;18134;52.298;8.888;2023-02-22T02:07:35;7.90;99.90
31525;DHT22;18134;52.298;8.888;2023-02-22T02:10:03;7.90;99.90
31525;DHT22;18134;52.298;8.888;2023-02-22T02:12:30;7.90;99.90
31525;DHT22;18134;52.298;8.888;2023-02-22T02:18:04;8.00;99.90
31525;DHT22;18134;52.298;8.888;2023-02-22T02:26:00;8.00;99.90
31525;DHT22;18134;52.298;8.888;2023-02-22T02:33:33;8.00;99.90
31525;DHT22;18134;52.298;8.888;2023-02-22T02:36:15;8.00;99.90
31525;DHT22;18134;52.298;8.888;2023-02-22T02:38:44;8.00;99.90
31525;DHT22;18134;52.298;8.888;2023-02-22T02:41:32;8.00;99.90
31525;DHT22;18134;52.298;8.888;2023-02-22T02:44:08;8.10;99.90
31525;DHT22;18134;52.298;8.888;2023-02-22T02:49:07;8.10;99.90
31525;DHT22;18134;52.298;8.888;2023-02-22T02:51:36;8.10;99.90
31525;DHT22;18134;52.298;8.888;2023-02-22T02:54:05;8.20;99.90
31525;DHT22;18134;52.298;8.888;2023-02-22T02:56:32;8.20;99.90
31525;DHT22;18134;52.298;8.888;2023-02-22T02:59:00;8.10;99.90
31525;DHT22;18134;52.298;8.888;2023-02-22T03:06:42;7.90;99.90
31525;DHT22;18134;52.298;8.888;2023-02-22T03:09:37;7.80;99.90
31525;DHT22;18134;52.298;8.888;2023-02-22T03:14:35;7.70;99.90
31525;DHT22;18134;52.298;8.888;2023-02-22T03:22:12;7.40;99.90
31525;DHT22;18134;52.298;8.888;2023-02-22T03:24:59;7.30;99.90
31525;DHT22;18134;52.298;8.888;2023-02-22T03:27:46;7.10;99.90
31525;DHT22;18134;52.298;8.888;2023-02-22T03:32:50;6.90;99.90
31525;DHT22;18134;52.298;8.888;2023-02-22T03:35:19;6.70;99.90
31525;DHT22;18134;52.298;8.888;2023-02-22T03:37:47;6.60;99.90
31525;DHT22;18134;52.298;8.888;2023-02-22T03:40:16;6.50;99.90
31525;DHT22;18134;52.298;8.888;2023-02-22T03:42:47;6.40;99.90
31525;DHT22;18134;52.298;8.888;2023-02-22T03:45:17;6.30;99.90
31525;DHT22;18134;52.298;8.888;2023-02-22T03:47:48;6.20;99.90
31525;DHT22;18134;52.298;8.888;2023-02-22T03:52:45;6.00;99.90
31525;DHT22;18134;52.298;8.888;2023-02-22T03:55:15;5.90;99.90
31525;DHT22;18134;52.298;8.888;2023-02-22T03:57:43;5.80;99.90
31525;DHT22;18134;52.298;8.888;2023-02-22T04:00:10;5.70;99.90
31525;DHT22;18134;52.298;8.888;2023-02-22T04:02:36;5.60;99.90
31525;DHT22;18134;52.298;8.888;2023-02-22T04:05:02;5.70;99.90
31525;DHT22;18134;52.298;8.888;2023-02-22T04:07:27;5.50;99.90
31525;DHT22;18134;52.298;8.888;2023-02-22T04:09:55;5.50;99.90
31525;DHT22;18134;52.298;8.888;2023-02-22T04:12:21;5.50;99.90
31525;DHT22;18134;52.298;8.888;2023-02-22T04:14:46;5.40;99.90
31525;DHT22;18134;52.298;8.888;2023-02-22T04:17:14;5.40;99.90
31525;DHT22;18134;52.298;8.888;2023-02-22T04:19:42;5.40;99.90
31525;DHT22;18134;52.298;8.888;2023-02-22T04:22:10;5.30;99.90
31525;DHT22;18134;52.298;8.888;2023-02-22T04:24:35;5.30;99.90
31525;DHT22;18134;52.298;8.888;2023-02-22T04:27:01;5.30;99.90
31525;DHT22;18134;52.298;8.888;2023-02-22T04:29:28;5.20;99.90
31525;DHT22;18134;52.298;8.888;2023-02-22T04:31:55;5.10;99.90
31525;DHT22;18134;52.298;8.888;2023-02-22T04:34:23;5.10;99.90
31525;DHT22;18134;52.298;8.888;2023-02-22T04:36:49;5.10;99.90
31525;DHT22;18134;52.298;8.888;2023-02-22T04:39:14;5.10;99.90
31525;DHT22;18134;52.298;8.888;2023-02-22T04:41:42;4.90;99.90
31525;DHT22;18134;52.298;8.888;2023-02-22T04:44:14;4.90;99.90
31525;DHT22;18134;52.298;8.888;2023-02-22T04:46:42;4.80;99.90
31525;DHT22;18134;52.298;8.888;2023-02-22T04:49:07;4.70;99.90
31525;DHT22;18134;52.298;8.888;2023-02-22T04:51:33;4.70;99.90
31525;DHT22;18134;52.298;8.888;2023-02-22T04:54:00;4.60;99.90
31525;DHT22;18134;52.298;8.888;2023-02-22T04:56:25;4.60;99.90
31525;DHT22;18134;52.298;8.888;2023-02-22T04:58:51;4.60;99.90
31525;DHT22;18134;52.298;8.888;2023-02-22T05:01:19;4.60;99.90
31525;DHT22;18134;52.298;8.888;2023-02-22T05:03:44;4.50;99.90
31525;DHT22;18134;52.298;8.888;2023-02-22T05:06:10;4.50;99.90
31525;DHT22;18134;52.298;8.888;2023-02-22T05:08:36;4.40;99.90
31525;DHT22;18134;52.298;8.888;2023-02-22T05:11:02;4.40;99.90
31525;DHT22;18134;52.298;8.888;2023-02-22T05:13:27;4.40;99.90
31525;DHT22;18134;52.298;8.888;2023-02-22T05:15:55;4.30;99.90
31525;DHT22;18134;52.298;8.888;2023-02-22T05:18:26;4.30;99.90
31525;DHT22;18134;52.298;8.888;2023-02-22T05:20:52;4.30;99.90
31525;DHT22;18134;52.298;8.888;2023-02-22T05:23:20;4.30;99.90
31525;DHT22;18134;52.298;8.888;2023-02-22T05:25:45;4.20;99.90
31525;DHT22;18134;52.298;8.888;2023-02-22T05:28:11;4.20;99.90
31525;DHT22;18134;52.298;8.888;2023-02-22T05:30:38;4.10;99.90
31525;DHT22;18134;52.298;8.888;2023-02-22T05:33:04;4.00;99.90
31525;DHT22;18134;52.298;8.888;2023-02-22T05:35:29;4.00;99.90
31525;DHT22;18134;52.298;8.888;2023-02-22T05:37:56;4.00;99.90
31525;DHT22;18134;52.298;8.888;2023-02-22T05:40:23;4.00;99.90
31525;DHT22;18134;52.298;8.888;2023-02-22T05:42:55;4.00;99.90
31525;DHT22;18134;52.298;8.888;2023-02-22T05:45:23;4.00;99.90
31525;DHT22;18134;52.298;8.888;2023-02-22T05:47:54;4.00;99.90
31525;DHT22;18134;52.298;8.888;2023-02-22T05:50:20;4.10;99.90
31525;DHT22;18134;52.298;8.888;2023-02-22T05:52:51;4.10;99.90
31525;DHT22;18134;52.298;8.888;2023-02-22T05:55:18;4.20;99.90
31525;DHT22;18134;52.298;8.888;2023-02-22T05:57:47;4.20;99.90
31525;DHT22;18134;52.298;8.888;2023-02-22T06:00:28;4.20;99.90
31525;DHT22;18134;52.298;8.888;2023-02-22T06:02:56;4.20;99.90
31525;DHT22;18134;52.298;8.888;2023-02-22T06:05:24;4.20;99.90
31525;DHT22;18134;52.298;8.888;2023-02-22T06:07:53;4.20;99.90
31525;DHT22;18134;52.298;8.888;2023-02-22T06:10:21;4.20;99.90
31525;DHT22;18134;52.298;8.888;2023-02-22T06:12:49;4.10;99.90
31525;DHT22;18134;52.298;8.888;2023-02-22T06:15:20;4.10;99.90
31525;DHT22;18134;52.298;8.888;2023-02-22T06:17:49;4.10;99.90
31525;DHT22;18134;52.298;8.888;2023-02-22T06:20:15;4.00;99.90
31525;DHT22;18134;52.298;8.888;2023-02-22T06:22:45;4.00;99.90
31525;DHT22;18134;52.298;8.888;2023-02-22T06:25:14;4.00;99.90
31525;DHT22;18134;52.298;8.888;2023-02-22T06:27:40;4.00;99.90
31525;DHT22;18134;52.298;8.888;2023-02-22T06:30:08;4.00;99.90
31525;DHT22;18134;52.298;8.888;2023-02-22T06:32:34;4.10;99.90
31525;DHT22;18134;52.298;8.888;2023-02-22T06:34:59;4.10;99.90
31525;DHT22;18134;52.298;8.888;2023-02-22T06:37:25;4.10;99.90
31525;DHT22;18134;52.298;8.888;2023-02-22T06:39:53;4.20;99.90
31525;DHT22;18134;52.298;8.888;2023-02-22T06:42:19;4.30;99.90
31525;DHT22;18134;52.298;8.888;2023-02-22T06:44:47;4.50;99.90
31525;DHT22;18134;52.298;8.888;2023-02-22T06:47:12;4.80;99.90
31525;DHT22;18134;52.298;8.888;2023-02-22T06:49:38;5.00;99.90
31525;DHT22;18134;52.298;8.888;2023-02-22T06:52:06;5.10;99.90
31525;DHT22;18134;52.298;8.888;2023-02-22T06:54:34;5.30;99.90
31525;DHT22;18134;52.298;8.888;2023-02-22T06:57:02;5.40;99.90
31525;DHT22;18134;52.298;8.888;2023-02-22T06:59:28;5.60;99.90
31525;DHT22;18134;52.298;8.888;2023-02-22T07:01:55;5.30;99.90
31525;DHT22;18134;52.298;8.888;2023-02-22T07:04:21;5.80;99.90
31525;DHT22;18134;52.298;8.888;2023-02-22T07:06:47;6.00;99.90
31525;DHT22;18134;52.298;8.888;2023-02-22T07:09:16;6.00;99.90
31525;DHT22;18134;52.298;8.888;2023-02-22T07:11:47;6.10;99.90
31525;DHT22;18134;52.298;8.888;2023-02-22T07:14:14;6.20;99.90
31525;DHT22;18134;52.298;8.888;2023-02-22T07:16:45;6.40;99.90
31525;DHT22;18134;52.298;8.888;2023-02-22T07:19:10;6.50;99.90
31525;DHT22;18134;52.298;8.888;2023-02-22T07:21:36;6.70;99.90
31525;DHT22;18134;52.298;8.888;2023-02-22T07:24:04;6.90;99.90
31525;DHT22;18134;52.298;8.888;2023-02-22T07:26:33;7.00;99.90
31525;DHT22;18134;52.298;8.888;2023-02-22T07:29:05;7.20;99.90
31525;DHT22;18134;52.298;8.888;2023-02-22T07:31:35;7.30;99.90
31525;DHT22;18134;52.298;8.888;2023-02-22T07:34:00;7.40;99.90
31525;DHT22;18134;52.298;8.888;2023-02-22T07:36:28;7.50;99.90
31525;DHT22;18134;52.298;8.888;2023-02-22T07:38:58;7.60;99.90
31525;DHT22;18134;52.298;8.888;2023-02-22T07:41:26;7.80;99.90
31525;DHT22;18134;52.298;8.888;2023-02-22T07:43:54;7.90;99.90
31525;DHT22;18134;52.298;8.888;2023-02-22T07:46:19;8.00;99.90
31525;DHT22;18134;52.298;8.888;2023-02-22T07:48:47;8.10;99.90
31525;DHT22;18134;52.298;8.888;2023-02-22T07:51:14;8.20;99.90
31525;DHT22;18134;52.298;8.888;2023-02-22T07:53:39;8.20;99.90
31525;DHT22;18134;52.298;8.888;2023-02-22T07:56:05;8.30;99.90
31525;DHT22;18134;52.298;8.888;2023-02-22T07:58:33;8.40;99.90
31525;DHT22;18134;52.298;8.888;2023-02-22T08:01:02;8.50;99.90
31525;DHT22;18134;52.298;8.888;2023-02-22T08:03:29;8.50;99.90
31525;DHT22;18134;52.298;8.888;2023-02-22T08:05:58;8.50;99.90
31525;DHT22;18134;52.298;8.888;2023-02-22T08:08:24;8.50;99.90
31525;DHT22;18134;52.298;8.888;2023-02-22T08:10:54;8.60;99.90
31525;DHT22;18134;52.298;8.888;2023-02-22T08:13:19;8.70;99.90
31525;DHT22;18134;52.298;8.888;2023-02-22T08:15:49;8.70;99.90
31525;DHT22;18134;52.298;8.888;2023-02-22T08:18:15;8.80;99.90
31525;DHT22;18134;52.298;8.888;2023-02-22T08:20:42;8.80;99.90
31525;DHT22;18134;52.298;8.888;2023-02-22T08:23:11;8.40;99.90
31525;DHT22;18134;52.298;8.888;2023-02-22T08:25:37;8.90;99.90
31525;DHT22;18134;52.298;8.888;2023-02-22T08:28:04;9.00;99.90
31525;DHT22;18134;52.298;8.888;2023-02-22T08:30:30;9.00;99.90
31525;DHT22;18134;52.298;8.888;2023-02-22T08:32:56;9.10;99.90
31525;DHT22;18134;52.298;8.888;2023-02-22T08:35:24;9.20;99.90
31525;DHT22;18134;52.298;8.888;2023-02-22T08:37:52;9.30;99.90
31525;DHT22;18134;52.298;8.888;2023-02-22T08:40:20;9.40;99.90
31525;DHT22;18134;52.298;8.888;2023-02-22T08:42:46;9.40;99.90
31525;DHT22;18134;52.298;8.888;2023-02-22T08:45:14;9.50;99.90
31525;DHT22;18134;52.298;8.888;2023-02-22T08:47:41;9.60;99.90
31525;DHT22;18134;52.298;8.888;2023-02-22T08:50:13;9.60;99.90
31525;DHT22;18134;52.298;8.888;2023-02-22T08:52:40;9.70;99.90
31525;DHT22;18134;52.298;8.888;2023-02-22T08:55:07;9.90;99.90
31525;DHT22;18134;52.298;8.888;2023-02-22T08:57:35;10.10;99.90
31525;DHT22;18134;52.298;8.888;2023-02-22T09:00:06;10.20;99.90
31525;DHT22;18134;52.298;8.888;2023-02-22T09:02:32;10.30;99.90
31525;DHT22;18134;52.298;8.888;2023-02-22T09:04:57;10.50;99.90
31525;DHT22;18134;52.298;8.888;2023-02-22T09:07:25;10.60;99.90
31525;DHT22;18134;52.298;8.888;2023-02-22T09:09:53;10.60;99.90
31525;DHT22;18134;52.298;8.888;2023-02-22T09:12:21;10.70;99.90
31525;DHT22;18134;52.298;8.888;2023-02-22T09:14:46;10.90;99.90
31525;DHT22;18134;52.298;8.888;2023-02-22T09:17:14;11.00;99.90
31525;DHT22;18134;52.298;8.888;2023-02-22T09:19:42;11.20;99.90
31525;DHT22;18134;52.298;8.888;2023-02-22T09:22:10;11.30;99.90
31525;DHT22;18134;52.298;8.888;2023-02-22T09:24:38;11.40;99.90
31525;DHT22;18134;52.298;8.888;2023-02-22T09:27:03;11.50;99.90
31525;DHT22;18134;52.298;8.888;2023-02-22T09:29:34;11.50;99.90
31525;DHT22;18134;52.298;8.888;2023-02-22T09:31:59;11.60;99.90
31525;DHT22;18134;52.298;8.888;2023-02-22T09:34:28;11.70;99.90
31525;DHT22;18134;52.298;8.888;2023-02-22T09:36:54;11.70;99.90
31525;DHT22;18134;52.298;8.888;2023-02-22T09:39:22;11.80;99.90
31525;DHT22;18134;52.298;8.888;2023-02-22T09:42:08;11.90;99.90
31525;DHT22;18134;52.298;8.888;2023-02-22T09:45:22;11.90;99.90
31525;DHT22;18134;52.298;8.888;2023-02-22T09:47:37;12.10;99.90
31525;DHT22;18134;52.298;8.888;2023-02-22T09:50:12;12.30;99.90
31525;DHT22;18134;52.298;8.888;2023-02-22T09:52:58;12.40;99.90
31525;DHT22;18134;52.298;8.888;2023-02-22T09:57:55;12.60;99.90
31525;DHT22;18134;52.298;8.888;2023-02-22T10:00:36;12.80;99.90
31525;DHT22;18134;52.298;8.888;2023-02-22T10:06:02;13.10;99.90
31525;DHT22;18134;52.298;8.888;2023-02-22T10:08:32;13.30;99.90
31525;DHT22;18134;52.298;8.888;2023-02-22T10:11:25;13.40;99.90
31525;DHT22;18134;52.298;8.888;2023-02-22T10:19:14;13.60;99.90
31525;DHT22;18134;52.298;8.888;2023-02-22T10:26:42;13.50;99.90
31525;DHT22;18134;52.298;8.888;2023-02-22T10:31:39;13.50;99.90
31525;DHT22;18134;52.298;8.888;2023-02-22T10:34:10;13.40;99.90
31525;DHT22;18134;52.298;8.888;2023-02-22T10:36:40;13.40;99.90
31525;DHT22;18134;52.298;8.888;2023-02-22T10:41:40;13.40;99.90
31525;DHT22;18134;52.298;8.888;2023-02-22T10:44:11;13.40;99.90
31525;DHT22;18134;52.298;8.888;2023-02-22T10:46:39;13.50;99.90
31525;DHT22;18134;52.298;8.888;2023-02-22T10:49:09;13.70;99.90
31525;DHT22;18134;52.298;8.888;2023-02-22T10:51:35;13.70;99.90
31525;DHT22;18134;52.298;8.888;2023-02-22T10:54:13;13.90;99.90
31525;DHT22;18134;52.298;8.888;2023-02-22T10:56:46;14.00;99.90
31525;DHT22;18134;52.298;8.888;2023-02-22T10:59:12;14.20;99.90
31525;DHT22;18134;52.298;8.888;2023-02-22T11:01:51;14.40;99.90
31525;DHT22;18134;52.298;8.888;2023-02-22T11:04:21;14.70;99.90
31525;DHT22;18134;52.298;8.888;2023-02-22T11:09:47;15.10;99.90
31525;DHT22;18134;52.298;8.888;2023-02-22T11:14:55;15.20;99.90
31525;DHT22;18134;52.298;8.888;2023-02-22T11:17:26;15.10;99.90
31525;DHT22;18134;52.298;8.888;2023-02-22T11:19:52;15.20;99.90
31525;DHT22;18134;52.298;8.888;2023-02-22T11:22:36;15.30;99.90
31525;DHT22;18134;52.298;8.888;2023-02-22T11:25:06;15.40;99.90
31525;DHT22;18134;52.298;8.888;2023-02-22T11:27:42;15.40;99.90
31525;DHT22;18134;52.298;8.888;2023-02-22T11:32:41;15.50;99.90
31525;DHT22;18134;52.298;8.888;2023-02-22T11:37:52;15.40;99.90
31525;DHT22;18134;52.298;8.888;2023-02-22T11:43:05;15.20;99.90
31525;DHT22;18134;52.298;8.888;2023-02-22T11:45:32;15.20;99.90
31525;DHT22;18134;52.298;8.888;2023-02-22T11:48:00;15.10;99.90
31525;DHT22;18134;52.298;8.888;2023-02-22T11:53:11;15.10;99.90
31525;DHT22;18134;52.298;8.888;2023-02-22T11:55:51;15.00;99.90
31525;DHT22;18134;52.298;8.888;2023-02-22T12:21:30;16.20;99.90
31525;DHT22;18134;52.298;8.888;2023-02-22T12:24:04;16.10;99.90
31525;DHT22;18134;52.298;8.888;2023-02-22T12:32:03;16.40;99.90
31525;DHT22;18134;52.298;8.888;2023-02-22T12:42:26;16.60;99.90
31525;DHT22;18134;52.298;8.888;2023-02-22T12:44:58;16.70;99.90
31525;DHT22;18134;52.298;8.888;2023-02-22T12:47:29;16.80;99.90
31525;DHT22;18134;52.298;8.888;2023-02-22T12:50:02;16.70;99.90
31525;DHT22;18134;52.298;8.888;2023-02-22T13:00:21;16.90;99.90
31525;DHT22;18134;52.298;8.888;2023-02-22T13:05:35;16.80;99.90
31525;DHT22;18134;52.298;8.888;2023-02-22T13:08:04;16.90;99.90
31525;DHT22;18134;52.298;8.888;2023-02-22T13:10:53;17.00;99.90
31525;DHT22;18134;52.298;8.888;2023-02-22T13:25:45;17.20;99.90
31525;DHT22;18134;52.298;8.888;2023-02-22T13:54:39;17.50;99.90
31525;DHT22;18134;52.298;8.888;2023-02-22T13:56:58;17.40;99.90
31525;DHT22;18134;52.298;8.888;2023-02-22T13:59:29;17.20;99.90
31525;DHT22;18134;52.298;8.888;2023-02-22T14:02:00;17.30;99.90
31525;DHT22;18134;52.298;8.888;2023-02-22T14:17:35;16.90;99.90
31525;DHT22;18134;52.298;8.888;2023-02-22T14:22:39;16.70;99.90
31525;DHT22;18134;52.298;8.888;2023-02-22T14:27:54;16.50;99.90
31525;DHT22;18134;52.298;8.888;2023-02-22T14:30:22;16.30;99.90
31525;DHT22;18134;52.298;8.888;2023-02-22T14:32:51;16.20;99.90
31525;DHT22;18134;52.298;8.888;2023-02-22T14:35:19;16.00;99.90
31525;DHT22;18134;52.298;8.888;2023-02-22T14:37:51;16.00;99.90
31525;DHT22;18134;52.298;8.888;2023-02-22T14:40:31;15.80;99.90
31525;DHT22;18134;52.298;8.888;2023-02-22T14:45:48;15.80;99.90
31525;DHT22;18134;52.298;8.888;2023-02-22T14:48:35;15.70;99.90
31525;DHT22;18134;52.298;8.888;2023-02-22T14:53:48;15.50;99.90
31525;DHT22;18134;52.298;8.888;2023-02-22T14:58:48;15.30;99.90
31525;DHT22;18134;52.298;8.888;2023-02-22T15:03:44;15.00;99.90
31525;DHT22;18134;52.298;8.888;2023-02-22T15:06:23;14.90;99.90
31525;DHT22;18134;52.298;8.888;2023-02-22T15:09:25;14.80;99.90
31525;DHT22;18134;52.298;8.888;2023-02-22T15:11:52;14.80;99.90
31525;DHT22;18134;52.298;8.888;2023-02-22T15:14:20;14.60;99.90
31525;DHT22;18134;52.298;8.888;2023-02-22T15:16:59;14.50;99.90
31525;DHT22;18134;52.298;8.888;2023-02-22T15:19:26;14.40;99.90
31525;DHT22;18134;52.298;8.888;2023-02-22T15:21:57;14.40;99.90
31525;DHT22;18134;52.298;8.888;2023-02-22T15:26:52;14.30;99.90
31525;DHT22;18134;52.298;8.888;2023-02-22T15:29:22;14.20;99.90
31525;DHT22;18134;52.298;8.888;2023-02-22T15:31:52;14.10;99.90
31525;DHT22;18134;52.298;8.888;2023-02-22T15:34:23;14.10;99.90
31525;DHT22;18134;52.298;8.888;2023-02-22T15:36:54;14.00;99.90
31525;DHT22;18134;52.298;8.888;2023-02-22T15:41:59;13.80;99.90
31525;DHT22;18134;52.298;8.888;2023-02-22T15:44:26;13.70;99.90
31525;DHT22;18134;52.298;8.888;2023-02-22T15:46:52;13.70;99.90
31525;DHT22;18134;52.298;8.888;2023-02-22T15:49:23;13.60;99.90
31525;DHT22;18134;52.298;8.888;2023-02-22T15:52:00;13.60;99.90
31525;DHT22;18134;52.298;8.888;2023-02-22T15:54:26;13.50;99.90
31525;DHT22;18134;52.298;8.888;2023-02-22T15:56:55;13.40;99.90
31525;DHT22;18134;52.298;8.888;2023-02-22T15:59:24;13.30;99.90
31525;DHT22;18134;52.298;8.888;2023-02-22T16:01:54;13.10;99.90
31525;DHT22;18134;52.298;8.888;2023-02-22T16:04:26;13.10;99.90
31525;DHT22;18134;52.298;8.888;2023-02-22T16:06:54;13.00;99.90
31525;DHT22;18134;52.298;8.888;2023-02-22T16:09:29;12.90;99.90
31525;DHT22;18134;52.298;8.888;2023-02-22T16:12:07;12.70;99.90
31525;DHT22;18134;52.298;8.888;2023-02-22T16:17:11;12.50;99.90
31525;DHT22;18134;52.298;8.888;2023-02-22T16:19:41;12.40;99.90
31525;DHT22;18134;52.298;8.888;2023-02-22T16:22:30;12.20;99.90
31525;DHT22;18134;52.298;8.888;2023-02-22T16:25:12;12.10;99.90
31525;DHT22;18134;52.298;8.888;2023-02-22T16:27:42;12.00;99.90
31525;DHT22;18134;52.298;8.888;2023-02-22T16:32:43;11.60;99.90
31525;DHT22;18134;52.298;8.888;2023-02-22T16:35:11;11.40;99.90
31525;DHT22;18134;52.298;8.888;2023-02-22T16:37:44;11.30;99.90
31525;DHT22;18134;52.298;8.888;2023-02-22T16:40:11;11.20;99.90
31525;DHT22;18134;52.298;8.888;2023-02-22T16:42:44;11.00;99.90
31525;DHT22;18134;52.298;8.888;2023-02-22T16:45:15;10.80;99.90
31525;DHT22;18134;52.298;8.888;2023-02-22T16:47:41;10.70;99.90
31525;DHT22;18134;52.298;8.888;2023-02-22T16:50:09;10.50;99.90
31525;DHT22;18134;52.298;8.888;2023-02-22T16:52:40;10.40;99.90
31525;DHT22;18134;52.298;8.888;2023-02-22T16:55:09;10.30;99.90
31525;DHT22;18134;52.298;8.888;2023-02-22T16:57:35;10.20;99.90
31525;DHT22;18134;52.298;8.888;2023-02-22T17:00:02;10.10;99.90
31525;DHT22;18134;52.298;8.888;2023-02-22T17:02:32;10.00;99.90
31525;DHT22;18134;52.298;8.888;2023-02-22T17:04:57;9.90;99.90
31525;DHT22;18134;52.298;8.888;2023-02-22T17:07:25;9.80;99.90
31525;DHT22;18134;52.298;8.888;2023-02-22T17:09:55;9.70;99.90
31525;DHT22;18134;52.298;8.888;2023-02-22T17:12:29;9.50;99.90
31525;DHT22;18134;52.298;8.888;2023-02-22T17:14:56;9.50;99.90
31525;DHT22;18134;52.298;8.888;2023-02-22T17:17:24;9.40;99.90
31525;DHT22;18134;52.298;8.888;2023-02-22T17:19:51;9.30;99.90
31525;DHT22;18134;52.298;8.888;2023-02-22T17:22:20;9.20;99.90
31525;DHT22;18134;52.298;8.888;2023-02-22T17:24:46;9.10;99.90
31525;DHT22;18134;52.298;8.888;2023-02-22T17:27:12;9.10;99.90
31525;DHT22;18134;52.298;8.888;2023-02-22T17:29:37;9.10;99.90
31525;DHT22;18134;52.298;8.888;2023-02-22T17:32:06;9.00;99.90
31525;DHT22;18134;52.298;8.888;2023-02-22T17:34:37;9.00;99.90
31525;DHT22;18134;52.298;8.888;2023-02-22T17:37:02;8.90;99.90
31525;DHT22;18134;52.298;8.888;2023-02-22T17:39:31;8.80;99.90
31525;DHT22;18134;52.298;8.888;2023-02-22T17:41:57;8.80;99.90
31525;DHT22;18134;52.298;8.888;2023-02-22T17:44:24;8.80;99.90
31525;DHT22;18134;52.298;8.888;2023-02-22T17:46:50;8.70;99.90
31525;DHT22;18134;52.298;8.888;2023-02-22T17:49:17;8.70;99.90
31525;DHT22;18134;52.298;8.888;2023-02-22T17:51:46;8.60;99.90
31525;DHT22;18134;52.298;8.888;2023-02-22T17:54:14;8.60;99.90
31525;DHT22;18134;52.298;8.888;2023-02-22T17:56:45;8.60;99.90
31525;DHT22;18134;52.298;8.888;2023-02-22T17:59:16;8.60;99.90
31525;DHT22;18134;52.298;8.888;2023-02-22T18:01:44;8.60;99.90
31525;DHT22;18134;52.298;8.888;2023-02-22T18:04:13;8.50;99.90
31525;DHT22;18134;52.298;8.888;2023-02-22T18:06:38;8.50;99.90
31525;DHT22;18134;52.298;8.888;2023-02-22T18:09:06;8.50;99.90
31525;DHT22;18134;52.298;8.888;2023-02-22T18:11:37;8.50;99.90
31525;DHT22;18134;52.298;8.888;2023-02-22T18:14:05;8.50;99.90
31525;DHT22;18134;52.298;8.888;2023-02-22T18:16:36;8.50;99.90
31525;DHT22;18134;52.298;8.888;2023-02-22T18:19:05;8.40;99.90
31525;DHT22;18134;52.298;8.888;2023-02-22T18:21:34;8.50;99.90
31525;DHT22;18134;52.298;8.888;2023-02-22T18:24:03;8.50;99.90
31525;DHT22;18134;52.298;8.888;2023-02-22T18:26:28;8.40;99.90
31525;DHT22;18134;52.298;8.888;2023-02-22T18:28:54;8.50;99.90
31525;DHT22;18134;52.298;8.888;2023-02-22T18:31:20;8.50;99.90
31525;DHT22;18134;52.298;8.888;2023-02-22T18:33:49;8.50;99.90
31525;DHT22;18134;52.298;8.888;2023-02-22T18:36:18;8.50;99.90
31525;DHT22;18134;52.298;8.888;2023-02-22T18:38:52;8.50;99.90
31525;DHT22;18134;52.298;8.888;2023-02-22T18:41:19;8.50;99.90
31525;DHT22;18134;52.298;8.888;2023-02-22T18:43:49;8.50;99.90
31525;DHT22;18134;52.298;8.888;2023-02-22T18:46:16;8.50;99.90
31525;DHT22;18134;52.298;8.888;2023-02-22T18:48:47;8.60;99.90
31525;DHT22;18134;52.298;8.888;2023-02-22T18:51:16;8.60;99.90
31525;DHT22;18134;52.298;8.888;2023-02-22T18:53:44;8.60;99.90
31525;DHT22;18134;52.298;8.888;2023-02-22T18:56:11;8.70;99.90
31525;DHT22;18134;52.298;8.888;2023-02-22T18:58:38;8.70;99.90
31525;DHT22;18134;52.298;8.888;2023-02-22T19:01:04;8.70;99.90
31525;DHT22;18134;52.298;8.888;2023-02-22T19:03:31;8.80;99.90
31525;DHT22;18134;52.298;8.888;2023-02-22T19:06:00;8.80;99.90
31525;DHT22;18134;52.298;8.888;2023-02-22T19:08:26;8.80;99.90
31525;DHT22;18134;52.298;8.888;2023-02-22T19:11:05;8.90;99.90
31525;DHT22;18134;52.298;8.888;2023-02-22T19:13:36;8.90;99.90